createdAt,value
2022-11-17T00:00:45.046Z,13.35
2022-11-17T00:03:15.686Z,13.63
2022-11-17T00:05:43.309Z,14.20
2022-11-17T00:08:09.867Z,14.45
2022-11-17T00:10:36.428Z,13.90
2022-11-17T00:13:21.259Z,13.43
2022-11-17T00:15:47.817Z,14.55
2022-11-17T00:18:36.424Z,14.27
2022-11-17T00:21:21.582Z,13.80
2022-11-17T00:23:48.554Z,14.63
2022-11-17T00:26:29.463Z,14.88
2022-11-17T00:28:58.930Z,13.95
2022-11-17T00:31:46.158Z,13.80
2022-11-17T00:34:18.855Z,13.82
2022-11-17T00:36:47.903Z,14.57
2022-11-17T00:39:20.108Z,13.88
2022-11-17T00:41:46.908Z,12.90
2022-11-17T00:44:14.386Z,13.40
2022-11-17T00:46:43.769Z,11.95
2022-11-17T00:49:11.487Z,11.65
2022-11-17T00:51:41.612Z,12.13
2022-11-17T00:54:11.188Z,12.18
2022-11-17T00:56:37.755Z,10.60
2022-11-17T00:59:04.413Z,10.05
2022-11-17T01:01:31.235Z,9.07
2022-11-17T01:04:04.788Z,8.90
2022-11-17T01:06:35.904Z,8.80
2022-11-17T01:09:05.526Z,9.60
2022-11-17T01:11:32.423Z,9.77
2022-11-17T01:14:00.489Z,9.30
2022-11-17T01:16:28.372Z,7.28
2022-11-17T01:18:54.995Z,9.55
2022-11-17T01:21:26.680Z,10.38
2022-11-17T01:23:57.556Z,9.95
2022-11-17T01:26:27.781Z,10.20
2022-11-17T01:28:54.751Z,10.75
2022-11-17T01:31:24.542Z,11.80
2022-11-17T01:33:51.646Z,11.48
2022-11-17T01:36:24.402Z,12.65
2022-11-17T01:38:50.987Z,10.98
2022-11-17T01:41:22.654Z,11.63
2022-11-17T01:43:57.853Z,10.88
2022-11-17T01:46:41.220Z,10.77
2022-11-17T01:49:24.598Z,10.40
2022-11-17T01:51:57.602Z,11.68
2022-11-17T01:54:27.273Z,8.80
2022-11-17T01:56:59.609Z,8.98
2022-11-17T01:59:33.780Z,10.32
2022-11-17T02:02:00.493Z,11.73
2022-11-17T02:04:33.085Z,12.50
2022-11-17T02:07:15.595Z,13.07
2022-11-17T02:09:49.225Z,12.45
2022-11-17T02:12:21.095Z,11.55
2022-11-17T02:14:52.260Z,11.23
2022-11-17T02:17:21.528Z,9.98
2022-11-17T02:20:01.503Z,13.23
2022-11-17T02:22:49.473Z,14.23
2022-11-17T02:25:27.909Z,12.95
2022-11-17T02:27:54.319Z,12.45
2022-11-17T02:30:23.119Z,12.02
2022-11-17T02:33:11.344Z,9.20
2022-11-17T02:35:47.635Z,12.85
2022-11-17T02:38:41.510Z,14.77
2022-11-17T02:41:23.015Z,12.77
2022-11-17T02:44:23.898Z,10.85
2022-11-17T02:47:08.244Z,9.65
2022-11-17T02:49:38.983Z,10.82
2022-11-17T02:52:06.542Z,13.07
2022-11-17T02:54:33.713Z,11.52
2022-11-17T02:57:00.601Z,14.50
2022-11-17T02:59:33.991Z,13.20
2022-11-17T03:02:03.627Z,14.27
2022-11-17T03:04:52.806Z,13.70
2022-11-17T03:07:43.929Z,13.15
2022-11-17T03:10:29.006Z,13.50
2022-11-17T03:13:05.835Z,10.80
2022-11-17T03:15:50.759Z,8.20
2022-11-17T03:18:30.377Z,11.73
2022-11-17T03:21:05.849Z,11.60
2022-11-17T03:23:43.483Z,12.25
2022-11-17T03:26:13.544Z,11.75
2022-11-17T03:28:42.752Z,10.93
2022-11-17T03:31:16.004Z,11.63
2022-11-17T03:33:47.738Z,11.30
2022-11-17T03:36:18.708Z,9.38
2022-11-17T03:38:58.169Z,11.07
2022-11-17T03:41:28.696Z,10.02
2022-11-17T03:43:58.292Z,8.32
2022-11-17T03:46:28.659Z,8.95
2022-11-17T03:49:02.854Z,8.70
2022-11-17T03:51:33.238Z,8.00
2022-11-17T03:54:00.888Z,8.38
2022-11-17T03:56:46.031Z,9.35
2022-11-17T03:59:22.254Z,9.32
2022-11-17T04:01:48.790Z,9.15
2022-11-17T04:04:16.683Z,8.70
2022-11-17T04:06:43.300Z,7.95
2022-11-17T04:09:09.977Z,7.90
2022-11-17T04:11:55.111Z,7.22
2022-11-17T04:14:39.742Z,7.00
2022-11-17T04:17:06.313Z,6.95
2022-11-17T04:19:32.789Z,7.00
2022-11-17T04:21:59.340Z,6.68
2022-11-17T04:24:25.806Z,6.30
2022-11-17T04:27:10.452Z,6.20
2022-11-17T04:29:36.969Z,5.82
2022-11-17T04:32:03.545Z,6.18
2022-11-17T04:34:30.036Z,5.40
2022-11-17T04:37:01.642Z,5.90
2022-11-17T04:39:30.541Z,5.68
2022-11-17T04:42:01.880Z,5.78
2022-11-17T04:44:32.457Z,6.88
2022-11-17T04:46:59.450Z,7.50
2022-11-17T04:49:26.149Z,7.93
2022-11-17T04:51:53.750Z,7.47
2022-11-17T04:54:24.534Z,8.82
2022-11-17T04:56:55.098Z,8.63
2022-11-17T04:59:24.649Z,8.82
2022-11-17T05:01:51.525Z,8.43
2022-11-17T05:04:40.327Z,9.00
2022-11-17T05:07:08.357Z,8.27
2022-11-17T05:09:34.912Z,8.48
2022-11-17T05:12:20.057Z,8.68
2022-11-17T05:14:49.138Z,7.90
2022-11-17T05:17:16.151Z,7.82
2022-11-17T05:19:45.310Z,7.85
2022-11-17T05:22:32.833Z,7.90
2022-11-17T05:24:59.588Z,7.40
2022-11-17T05:27:26.796Z,7.70
2022-11-17T05:29:53.789Z,7.28
2022-11-17T05:32:21.475Z,7.43
2022-11-17T05:34:48.070Z,7.82
2022-11-17T05:37:18.286Z,7.03
2022-11-17T05:39:44.738Z,7.90
2022-11-17T05:42:11.388Z,7.65
2022-11-17T05:44:37.884Z,8.30
2022-11-17T05:47:04.421Z,11.05
2022-11-17T05:49:30.891Z,11.82
2022-11-17T05:51:57.374Z,10.60
2022-11-17T05:54:23.821Z,12.23
2022-11-17T05:57:04.516Z,11.73
2022-11-17T05:59:49.627Z,11.98
2022-11-17T06:02:23.983Z,10.95
2022-11-17T06:04:51.756Z,10.55
2022-11-17T06:07:19.497Z,10.43
2022-11-17T06:09:46.593Z,9.35
2022-11-17T06:12:15.146Z,9.88
2022-11-17T06:14:41.713Z,8.85
2022-11-17T06:17:21.919Z,9.52
2022-11-17T06:19:55.655Z,9.23
2022-11-17T06:22:22.688Z,9.30
2022-11-17T06:24:49.204Z,11.10
2022-11-17T06:27:17.192Z,10.63
2022-11-17T06:29:45.250Z,11.15
2022-11-17T06:32:17.070Z,12.23
2022-11-17T06:34:49.062Z,10.35
2022-11-17T06:37:17.264Z,10.73
2022-11-17T06:39:43.725Z,11.80
2022-11-17T06:42:10.195Z,12.05
2022-11-17T06:44:36.831Z,10.70
2022-11-17T06:47:03.517Z,11.50
2022-11-17T06:49:30.034Z,11.02
2022-11-17T06:51:56.519Z,9.57
2022-11-17T06:54:25.960Z,11.57
2022-11-17T06:56:55.993Z,11.05
2022-11-17T06:59:22.555Z,11.10
2022-11-17T07:01:49.034Z,9.57
2022-11-17T07:04:19.106Z,11.48
2022-11-17T07:06:45.604Z,10.45
2022-11-17T07:09:12.071Z,11.38
2022-11-17T07:11:38.536Z,10.32
2022-11-17T07:14:05.028Z,11.52
2022-11-17T07:16:32.490Z,11.13
2022-11-17T07:18:59.518Z,11.75
2022-11-17T07:21:26.201Z,12.60
2022-11-17T07:23:52.762Z,13.98
2022-11-17T07:26:19.571Z,10.82
2022-11-17T07:28:46.058Z,11.95
2022-11-17T07:31:12.563Z,10.10
2022-11-17T07:33:39.056Z,9.75
2022-11-17T07:36:11.632Z,8.80
2022-11-17T07:38:39.847Z,10.20
2022-11-17T07:41:07.979Z,11.68
2022-11-17T07:43:35.028Z,10.32
2022-11-17T07:46:10.739Z,8.23
2022-11-17T07:48:37.602Z,9.95
2022-11-17T07:51:05.419Z,11.05
2022-11-17T07:53:34.475Z,9.57
2022-11-17T07:56:09.724Z,10.88
2022-11-17T07:58:37.837Z,10.45
2022-11-17T08:01:06.091Z,7.07
2022-11-17T08:03:32.794Z,8.65
2022-11-17T08:06:06.993Z,8.15
2022-11-17T08:08:34.505Z,9.65
2022-11-17T08:11:09.983Z,8.82
2022-11-17T08:13:37.985Z,8.70
2022-11-17T08:16:04.799Z,8.45
2022-11-17T08:18:31.465Z,9.93
2022-11-17T08:21:05.438Z,8.55
2022-11-17T08:23:32.756Z,8.60
2022-11-17T08:25:59.890Z,8.57
2022-11-17T08:28:27.616Z,8.80
2022-11-17T08:30:54.311Z,9.10
2022-11-17T08:33:20.779Z,7.32
2022-11-17T08:35:47.368Z,7.75
2022-11-17T08:38:15.459Z,6.13
2022-11-17T08:40:42.608Z,7.90
2022-11-17T08:43:09.111Z,7.00
2022-11-17T08:45:35.615Z,5.88
2022-11-17T08:48:02.070Z,5.63
2022-11-17T08:50:28.588Z,6.63
2022-11-17T08:52:55.137Z,6.82
2022-11-17T08:55:21.688Z,6.30
2022-11-17T08:57:48.298Z,6.82
2022-11-17T09:00:16.341Z,6.00
2022-11-17T09:02:42.835Z,6.30
2022-11-17T09:05:09.514Z,5.80
2022-11-17T09:07:36.099Z,6.25
2022-11-17T09:10:05.366Z,5.82
2022-11-17T09:12:32.421Z,5.95
2022-11-17T09:14:58.957Z,5.90
2022-11-17T09:17:25.458Z,5.82
2022-11-17T09:19:51.972Z,5.13
2022-11-17T09:22:19.823Z,6.00
2022-11-17T09:24:46.281Z,5.75
2022-11-17T09:27:13.432Z,5.55
2022-11-17T09:29:43.187Z,5.28
2022-11-17T09:32:09.724Z,4.53
2022-11-17T09:34:36.311Z,4.13
2022-11-17T09:37:02.862Z,5.05
2022-11-17T09:39:32.801Z,4.18
2022-11-17T09:41:59.354Z,3.78
2022-11-17T09:44:51.418Z,4.40
2022-11-17T09:47:38.508Z,4.00
2022-11-17T09:50:20.118Z,4.00
2022-11-17T09:53:20.477Z,4.50
2022-11-17T09:55:51.171Z,4.20
2022-11-17T09:58:55.259Z,3.75
2022-11-17T10:01:22.499Z,3.67
2022-11-17T10:03:53.572Z,4.18
2022-11-17T10:06:22.617Z,4.10
2022-11-17T10:09:03.392Z,4.07
2022-11-17T10:11:33.251Z,3.13
2022-11-17T10:14:08.304Z,3.72
2022-11-17T10:16:36.229Z,3.67
2022-11-17T10:19:17.880Z,3.88
2022-11-17T10:21:51.772Z,3.85
2022-11-17T10:24:43.702Z,3.85
2022-11-17T10:27:32.308Z,4.10
2022-11-17T10:30:04.581Z,4.45
2022-11-17T10:32:35.046Z,4.60
2022-11-17T10:35:14.987Z,3.83
2022-11-17T10:37:51.329Z,4.40
2022-11-17T10:40:25.991Z,4.55
2022-11-17T10:43:00.525Z,4.60
2022-11-17T10:45:27.992Z,5.03
2022-11-17T10:48:09.542Z,4.90
2022-11-17T10:50:36.396Z,5.22
2022-11-17T10:53:46.313Z,5.45
2022-11-17T10:56:17.731Z,6.07
2022-11-17T10:58:57.001Z,5.32
2022-11-17T11:01:39.051Z,6.00
2022-11-17T11:06:35.398Z,5.53
2022-11-17T11:09:32.336Z,5.50
2022-11-17T11:12:02.086Z,5.10
2022-11-17T11:14:39.087Z,5.53
2022-11-17T11:17:13.606Z,5.10
2022-11-17T11:19:42.079Z,5.05
2022-11-17T11:22:30.406Z,5.20
2022-11-17T11:25:02.936Z,4.97
2022-11-17T11:27:35.694Z,4.68
2022-11-17T11:30:02.097Z,4.93
2022-11-17T11:32:50.046Z,5.45
2022-11-17T11:35:38.033Z,5.85
2022-11-17T11:38:41.279Z,5.32
2022-11-17T11:41:32.221Z,5.28
2022-11-17T11:44:20.869Z,5.70
2022-11-17T11:47:08.942Z,4.90
2022-11-17T11:49:49.451Z,6.13
2022-11-17T11:52:21.917Z,6.50
2022-11-17T11:55:07.263Z,6.55
2022-11-17T11:57:39.231Z,6.35
2022-11-17T12:02:51.310Z,6.18
2022-11-17T12:05:24.109Z,6.93
2022-11-17T12:08:13.288Z,6.72
2022-11-17T12:10:50.782Z,5.85
2022-11-17T12:13:20.944Z,5.72
2022-11-17T12:15:47.995Z,6.20
2022-11-17T12:18:17.580Z,6.13
2022-11-17T12:21:01.138Z,5.95
2022-11-17T12:23:38.032Z,5.95
2022-11-17T12:26:05.271Z,6.03
2022-11-17T12:28:40.554Z,5.63
2022-11-17T12:31:11.283Z,5.03
2022-11-17T12:33:52.845Z,5.60
2022-11-17T12:36:30.633Z,4.90
2022-11-17T12:39:03.589Z,4.68
2022-11-17T12:41:54.792Z,5.40
2022-11-17T12:44:48.501Z,5.47
2022-11-17T12:47:27.125Z,6.10
2022-11-17T12:50:02.868Z,6.90
2022-11-17T12:52:50.317Z,6.15
2022-11-17T12:55:24.632Z,6.18
2022-11-17T12:58:11.451Z,6.50
2022-11-17T13:00:52.896Z,7.10
2022-11-17T13:03:28.247Z,6.97
2022-11-17T13:06:34.540Z,7.25
2022-11-17T13:09:01.649Z,6.50
2022-11-17T13:11:29.353Z,6.38
2022-11-17T13:14:17.103Z,6.55
2022-11-17T13:16:50.299Z,6.13
2022-11-17T13:19:36.705Z,6.35
2022-11-17T13:22:13.859Z,6.65
2022-11-17T13:24:50.454Z,6.38
2022-11-17T13:27:22.306Z,7.05
2022-11-17T13:29:49.560Z,7.32
2022-11-17T13:32:22.067Z,7.28
2022-11-17T13:34:54.160Z,7.30
2022-11-17T13:37:26.656Z,7.78
2022-11-17T13:39:55.170Z,7.75
2022-11-17T13:42:25.175Z,7.95
2022-11-17T13:44:55.175Z,8.18
2022-11-17T13:47:28.383Z,8.52
2022-11-17T13:49:54.903Z,8.27
2022-11-17T13:52:51.651Z,8.60
2022-11-17T13:55:20.561Z,8.77
2022-11-17T13:58:25.892Z,8.70
2022-11-17T14:00:56.515Z,9.05
2022-11-17T14:03:38.112Z,8.68
2022-11-17T14:06:10.561Z,11.00
2022-11-17T14:08:39.372Z,10.52
2022-11-17T14:11:05.898Z,10.35
2022-11-17T14:13:53.896Z,11.18
2022-11-17T14:16:37.449Z,11.00
2022-11-17T14:19:16.474Z,10.57
2022-11-17T14:22:29.233Z,11.25
2022-11-17T14:24:57.728Z,10.82
2022-11-17T14:27:27.058Z,11.38
2022-11-17T14:29:53.559Z,11.20
2022-11-17T14:32:19.996Z,11.23
2022-11-17T14:34:46.512Z,10.98
2022-11-17T14:37:13.065Z,10.73
2022-11-17T14:39:39.589Z,11.23
2022-11-17T14:42:06.091Z,11.35
2022-11-17T14:44:32.570Z,11.93
2022-11-17T14:46:59.046Z,11.55
2022-11-17T14:49:25.538Z,12.55
2022-11-17T14:51:53.153Z,10.77
2022-11-17T14:54:19.610Z,13.13
2022-11-17T14:56:46.160Z,12.75
2022-11-17T14:59:13.467Z,11.98
2022-11-17T15:01:41.084Z,12.85
2022-11-17T15:04:27.630Z,12.95
2022-11-17T15:06:54.179Z,12.32
2022-11-17T15:09:21.124Z,12.82
2022-11-17T15:11:48.231Z,12.85
2022-11-17T15:14:15.041Z,13.35
2022-11-17T15:16:41.787Z,12.48
2022-11-17T15:19:08.242Z,12.13
2022-11-17T15:21:34.964Z,12.05
2022-11-17T15:24:03.999Z,12.27
2022-11-17T15:26:32.339Z,11.82
2022-11-17T15:28:59.103Z,12.57
2022-11-17T15:31:25.674Z,11.57
2022-11-17T15:33:52.200Z,11.73
2022-11-17T15:36:21.623Z,11.90
2022-11-17T15:38:48.400Z,11.68
2022-11-17T15:41:16.020Z,11.38
2022-11-17T15:43:44.527Z,11.30
2022-11-17T15:46:15.836Z,12.13
2022-11-17T15:48:43.859Z,11.35
2022-11-17T15:51:18.006Z,11.32
2022-11-17T15:53:48.832Z,12.15
2022-11-17T15:56:20.619Z,11.98
2022-11-17T15:58:48.586Z,12.63
2022-11-17T16:01:24.731Z,12.23
2022-11-17T16:03:52.779Z,13.32
2022-11-17T16:06:19.286Z,12.88
2022-11-17T16:08:45.739Z,12.98
2022-11-17T16:11:12.284Z,13.43
2022-11-17T16:13:38.903Z,11.48
2022-11-17T16:16:06.299Z,11.55
2022-11-17T16:18:40.419Z,12.00
2022-11-17T16:21:10.468Z,11.35
2022-11-17T16:23:41.620Z,13.05
2022-11-17T16:26:10.525Z,11.17
2022-11-17T16:28:37.677Z,11.13
2022-11-17T16:31:19.404Z,10.63
2022-11-17T16:33:51.132Z,9.82
2022-11-17T16:36:18.594Z,10.63
2022-11-17T16:38:59.964Z,10.38
2022-11-17T16:41:32.451Z,10.43
2022-11-17T16:43:59.541Z,9.23
2022-11-17T16:46:31.505Z,9.60
2022-11-17T16:51:29.149Z,9.75
2022-11-17T16:54:00.631Z,10.40
2022-11-17T16:56:27.927Z,10.05
2022-11-17T16:58:54.879Z,9.43
2022-11-17T17:01:26.917Z,10.48
2022-11-17T17:06:27.423Z,9.05
2022-11-17T17:08:59.445Z,9.77
2022-11-17T17:13:53.925Z,10.13
2022-11-17T17:16:20.819Z,9.35
2022-11-17T17:18:48.152Z,10.55
2022-11-17T17:21:18.125Z,9.95
2022-11-17T17:23:45.675Z,10.90
2022-11-17T17:26:16.618Z,11.13
2022-11-17T17:28:44.891Z,11.40
2022-11-17T17:31:20.768Z,10.98
2022-11-17T17:33:48.423Z,11.02
2022-11-17T17:36:17.633Z,11.15
2022-11-17T17:38:46.813Z,10.77
2022-11-17T17:41:20.079Z,11.45
2022-11-17T17:43:47.586Z,11.45
2022-11-17T17:46:16.717Z,11.73
2022-11-17T17:48:44.979Z,11.27
2022-11-17T17:51:17.119Z,12.35
2022-11-17T17:53:43.916Z,12.43
2022-11-17T17:56:12.959Z,12.00
2022-11-17T17:58:40.624Z,12.52
2022-11-17T18:01:12.488Z,12.00
2022-11-17T18:03:40.010Z,12.70
2022-11-17T18:06:06.964Z,11.82
2022-11-17T18:08:35.575Z,11.93
2022-11-17T18:11:06.030Z,12.20
2022-11-17T18:13:34.079Z,12.88
2022-11-17T18:16:11.345Z,12.57
2022-11-17T18:18:38.704Z,11.68
2022-11-17T18:21:10.085Z,12.10
2022-11-17T18:23:38.130Z,12.50
2022-11-17T18:26:12.253Z,12.13
2022-11-17T18:28:39.495Z,13.60
2022-11-17T18:31:10.319Z,13.57
2022-11-17T18:33:37.274Z,13.48
2022-11-17T18:36:06.084Z,13.80
2022-11-17T18:38:34.351Z,12.82
2022-11-17T18:41:09.306Z,15.77
2022-11-17T18:43:36.118Z,14.57
2022-11-17T18:46:08.312Z,14.98
2022-11-17T18:48:36.729Z,14.18
2022-11-17T18:51:20.681Z,15.05
2022-11-17T18:53:48.840Z,15.00
2022-11-17T18:56:17.727Z,15.48
2022-11-17T18:58:44.621Z,16.02
2022-11-17T19:01:14.019Z,15.95
2022-11-17T19:03:42.357Z,15.30
2022-11-17T19:06:10.417Z,16.02
2022-11-17T19:08:37.458Z,17.23
2022-11-17T19:11:06.581Z,16.70
2022-11-17T19:13:37.257Z,16.20
2022-11-17T19:16:08.539Z,19.30
2022-11-17T19:18:35.687Z,21.10
2022-11-17T19:21:14.212Z,22.52
2022-11-17T19:23:43.482Z,23.95
2022-11-17T19:26:15.169Z,22.08
2022-11-17T19:28:42.319Z,19.92
2022-11-17T19:31:15.378Z,17.88
2022-11-17T19:33:42.279Z,22.08
2022-11-17T19:36:11.525Z,20.92
2022-11-17T19:38:39.280Z,24.15
2022-11-17T19:41:08.152Z,19.73
2022-11-17T19:43:38.980Z,19.83
2022-11-17T19:46:13.842Z,25.50
2022-11-17T19:51:15.187Z,19.45
2022-11-17T19:53:41.871Z,22.02
2022-11-17T19:56:08.752Z,27.95
2022-11-17T19:58:35.292Z,28.25
2022-11-17T20:01:13.191Z,19.77
2022-11-17T20:03:40.629Z,23.63
2022-11-17T20:06:11.345Z,28.05
2022-11-17T20:08:38.153Z,23.20
2022-11-17T20:11:16.736Z,26.30
2022-11-17T20:13:43.686Z,24.40
2022-11-17T20:16:15.669Z,25.35
2022-11-17T20:21:10.542Z,21.00
2022-11-17T20:23:38.584Z,21.13
2022-11-17T20:26:29.993Z,31.50
2022-11-17T20:28:57.790Z,21.03
2022-11-17T20:31:27.029Z,25.42
2022-11-17T20:34:00.208Z,33.42
2022-11-17T20:36:29.071Z,32.83
2022-11-17T20:39:04.063Z,32.45
2022-11-17T20:41:30.813Z,33.38
2022-11-17T20:43:59.609Z,27.35
2022-11-17T20:46:26.887Z,29.05
2022-11-17T20:48:53.631Z,25.83
2022-11-17T20:51:22.204Z,38.08
2022-11-17T20:53:49.501Z,30.65
2022-11-17T20:56:17.750Z,34.40
2022-11-17T20:58:44.952Z,24.45
2022-11-17T21:01:16.628Z,27.48
2022-11-17T21:03:43.739Z,26.95
2022-11-17T21:06:10.675Z,26.15
2022-11-17T21:08:39.108Z,32.33
2022-11-17T21:11:08.683Z,31.08
2022-11-17T21:13:36.887Z,27.23
2022-11-17T21:16:13.441Z,27.60
2022-11-17T21:18:46.957Z,33.10
2022-11-17T21:21:14.358Z,30.83
2022-11-17T21:23:41.553Z,31.95
2022-11-17T21:26:18.525Z,38.97
2022-11-17T21:28:45.691Z,33.17
2022-11-17T21:31:17.760Z,34.70
2022-11-17T21:33:45.024Z,32.35
2022-11-17T21:36:17.101Z,30.85
2022-11-17T21:38:45.219Z,29.73
2022-11-17T21:41:18.508Z,27.63
2022-11-17T21:43:47.448Z,30.10
2022-11-17T21:46:22.742Z,26.08
2022-11-17T21:48:50.423Z,23.30
2022-11-17T21:51:22.397Z,26.52
2022-11-17T21:56:21.117Z,27.75
2022-11-17T21:58:47.632Z,25.77
2022-11-17T22:01:15.989Z,24.55
2022-11-17T22:03:43.282Z,38.28
2022-11-17T22:06:15.348Z,29.60
2022-11-17T22:11:36.049Z,24.70
2022-11-17T22:14:21.733Z,25.13
2022-11-17T22:16:52.972Z,27.27
2022-11-17T22:19:22.124Z,27.15
2022-11-17T22:21:51.590Z,29.13
2022-11-17T22:24:18.231Z,30.27
2022-11-17T22:26:45.218Z,29.45
2022-11-17T22:29:18.385Z,24.88
2022-11-17T22:31:46.281Z,29.13
2022-11-17T22:34:19.072Z,37.35
2022-11-17T22:36:46.152Z,32.22
2022-11-17T22:39:12.716Z,28.90
2022-11-17T22:41:42.640Z,34.58
2022-11-17T22:44:15.719Z,25.02
2022-11-17T22:46:45.781Z,23.73
2022-11-17T22:49:12.896Z,30.05
2022-11-17T22:51:58.224Z,29.02
2022-11-17T22:54:24.700Z,31.42
2022-11-17T22:56:51.212Z,31.70
2022-11-17T22:59:17.969Z,23.48
2022-11-17T23:01:46.609Z,27.65
2022-11-17T23:04:14.044Z,37.58
2022-11-17T23:06:40.523Z,30.85
2022-11-17T23:09:06.998Z,23.98
2022-11-17T23:11:38.147Z,33.85
2022-11-17T23:14:12.713Z,24.83
2022-11-17T23:16:39.996Z,22.42
2022-11-17T23:19:15.775Z,26.00
2022-11-17T23:21:42.881Z,24.75
2022-11-17T23:24:14.413Z,23.17
2022-11-17T23:26:42.006Z,19.27
2022-11-17T23:29:09.382Z,22.95
2022-11-17T23:31:36.154Z,25.00
2022-11-17T23:34:03.652Z,24.02
2022-11-17T23:36:30.266Z,22.23
2022-11-17T23:38:57.755Z,20.35
2022-11-17T23:41:24.341Z,19.67
2022-11-17T23:43:55.676Z,18.67
2022-11-17T23:46:27.015Z,17.15
2022-11-17T23:48:55.170Z,19.52
2022-11-17T23:51:23.783Z,23.13
2022-11-17T23:53:50.649Z,23.08
2022-11-17T23:56:19.464Z,18.45
2022-11-17T23:58:50.470Z,18.00
